createdAt,value
2023-03-31T00:10:10.390Z,100.00
2023-03-31T00:20:23.193Z,100.00
2023-03-31T00:30:28.110Z,100.00
2023-03-31T00:40:32.727Z,100.00
2023-03-31T00:50:41.554Z,100.00
2023-03-31T01:00:48.352Z,100.00
2023-03-31T01:10:57.064Z,100.00
2023-03-31T01:21:47.605Z,100.00
2023-03-31T01:31:52.188Z,100.00
2023-03-31T01:42:13.894Z,100.00
2023-03-31T01:52:24.537Z,100.00
2023-03-31T02:02:38.024Z,100.00
2023-03-31T02:12:44.820Z,100.00
2023-03-31T02:22:55.115Z,100.00
2023-03-31T02:32:58.348Z,100.00
2023-03-31T02:43:06.339Z,100.00
2023-03-31T02:53:37.793Z,100.00
2023-03-31T03:03:46.343Z,100.00
2023-03-31T03:13:54.368Z,100.00
2023-03-31T03:24:00.028Z,100.00
2023-03-31T03:34:02.308Z,100.00
2023-03-31T03:44:05.146Z,100.00
2023-03-31T03:54:10.054Z,100.00
2023-03-31T04:04:17.246Z,100.00
2023-03-31T04:14:19.708Z,100.00
2023-03-31T04:24:22.500Z,100.00
2023-03-31T04:34:35.594Z,100.00
2023-03-31T04:44:40.536Z,100.00
2023-03-31T04:54:42.869Z,100.00
2023-03-31T05:04:46.953Z,100.00
2023-03-31T05:14:49.151Z,100.00
2023-03-31T05:24:53.978Z,100.00
2023-03-31T05:34:57.643Z,100.00
2023-03-31T05:45:02.769Z,100.00
2023-03-31T05:55:11.942Z,100.00
2023-03-31T06:05:14.347Z,100.00
2023-03-31T06:15:21.306Z,100.00
2023-03-31T06:25:43.849Z,100.00
2023-03-31T06:36:00.172Z,100.00
2023-03-31T06:46:04.957Z,100.00
2023-03-31T06:56:11.171Z,100.00
2023-03-31T07:06:19.653Z,100.00
2023-03-31T07:16:25.547Z,100.00
2023-03-31T07:26:33.366Z,100.00
2023-03-31T07:36:40.571Z,100.00
2023-03-31T07:46:48.192Z,100.00
2023-03-31T07:56:50.917Z,100.00
2023-03-31T08:07:04.343Z,96.37
2023-03-31T08:17:09.051Z,96.71
2023-03-31T08:27:15.770Z,92.75
2023-03-31T08:37:18.238Z,94.85
2023-03-31T08:47:23.469Z,96.78
2023-03-31T08:57:31.898Z,94.01
2023-03-31T09:07:41.895Z,89.80
2023-03-31T09:17:52.107Z,87.67
2023-03-31T09:27:57.260Z,86.78
2023-03-31T09:38:03.552Z,84.92
2023-03-31T09:48:21.241Z,82.15
2023-03-31T09:58:25.394Z,80.42
2023-03-31T10:08:45.075Z,82.98
2023-03-31T10:18:54.593Z,81.53
2023-03-31T10:28:58.902Z,79.60
2023-03-31T10:39:07.990Z,77.65
2023-03-31T10:49:23.554Z,72.57
2023-03-31T10:59:30.196Z,70.80
2023-03-31T11:09:53.123Z,68.31
2023-03-31T11:20:44.096Z,68.00
2023-03-31T11:31:11.000Z,68.29
2023-03-31T11:41:23.094Z,67.86
2023-03-31T11:51:28.947Z,66.30
2023-03-31T12:01:41.642Z,65.97
2023-03-31T12:11:53.929Z,65.62
2023-03-31T12:22:14.069Z,64.10
2023-03-31T12:32:24.490Z,63.51
2023-03-31T12:42:52.652Z,62.67
2023-03-31T12:53:23.094Z,62.63
2023-03-31T13:03:43.952Z,61.19
2023-03-31T13:14:12.203Z,59.72
2023-03-31T13:24:24.197Z,59.58
2023-03-31T13:34:42.022Z,60.25
2023-03-31T13:45:22.220Z,60.12
2023-03-31T13:55:46.962Z,61.13
2023-03-31T14:06:19.995Z,62.93
2023-03-31T14:16:22.269Z,63.84
2023-03-31T14:26:54.631Z,62.52
2023-03-31T14:37:01.363Z,62.13
2023-03-31T14:47:16.130Z,62.59
2023-03-31T14:57:30.238Z,63.42
2023-03-31T15:07:45.171Z,62.98
2023-03-31T15:17:52.371Z,63.47
2023-03-31T15:28:03.508Z,67.99
2023-03-31T15:38:06.604Z,74.50
2023-03-31T15:48:38.378Z,84.59
2023-03-31T15:58:59.656Z,89.37
2023-03-31T16:09:09.316Z,86.64
2023-03-31T16:19:21.341Z,86.30
2023-03-31T16:29:26.228Z,86.31
2023-03-31T16:39:31.298Z,86.51
2023-03-31T16:49:39.165Z,88.76
2023-03-31T16:59:53.541Z,87.87
2023-03-31T17:09:56.593Z,86.94
2023-03-31T17:20:00.143Z,87.50
2023-03-31T17:30:02.561Z,85.04
2023-03-31T17:40:07.625Z,84.54
2023-03-31T17:50:11.528Z,88.85
2023-03-31T18:00:17.580Z,97.47
2023-03-31T18:10:23.020Z,100.00
2023-03-31T18:20:28.981Z,100.00
2023-03-31T18:30:31.911Z,100.00
2023-03-31T18:40:37.376Z,100.00
2023-03-31T18:50:40.191Z,100.00
2023-03-31T19:00:47.322Z,100.00
2023-03-31T19:11:15.773Z,100.00
2023-03-31T19:21:21.740Z,100.00
2023-03-31T19:31:27.053Z,100.00
2023-03-31T19:41:29.461Z,100.00
2023-03-31T19:51:32.640Z,100.00
2023-03-31T20:01:37.885Z,100.00
2023-03-31T20:11:43.770Z,100.00
2023-03-31T20:21:58.235Z,100.00
2023-03-31T20:32:06.138Z,100.00
2023-03-31T20:42:13.176Z,100.00
2023-03-31T20:52:28.370Z,100.00
2023-03-31T21:02:34.526Z,100.00
2023-03-31T21:12:38.293Z,100.00
2023-03-31T21:22:42.955Z,100.00
2023-03-31T21:32:54.136Z,100.00
2023-03-31T21:42:59.073Z,100.00
2023-03-31T21:53:03.398Z,100.00
2023-03-31T22:03:25.695Z,100.00
2023-03-31T22:13:28.875Z,100.00
2023-03-31T22:23:34.066Z,100.00
2023-03-31T22:33:37.427Z,100.00
2023-03-31T22:43:40.112Z,100.00
2023-03-31T22:53:44.713Z,100.00
2023-03-31T23:03:50.265Z,100.00
2023-03-31T23:13:56.518Z,100.00
2023-03-31T23:24:05.886Z,100.00
2023-03-31T23:34:10.680Z,100.00
2023-03-31T23:44:15.374Z,100.00
2023-03-31T23:54:20.072Z,100.00
